Terminal Aerodrome Forecast
Issued by NWS

Current Version | Previous Version | Text Only | Print | Product List | Glossary On
Versions: 1 2 3 4 5 6 7 8 9 10 11 12 13 14 15 16 17
000
FTUS45 KABQ 292330
TAFTCC
TAF
KTCC 292330Z 3000/3024 30018G26KT P6SM -TSRA BKN080CB
     FM300100 33008KT P6SM VCSH SCT080 BKN200
     FM300300 VRB04KT P6SM SCT100
     FM302000 19009KT P6SM FEW080=

USA.gov is the U.S. government's official web portal to all federal, state and local government web resources and services.